createdAt,value
2023-02-11T00:01:08.027Z,6.60
2023-02-11T00:03:36.212Z,5.75
2023-02-11T00:06:06.683Z,6.70
2023-02-11T00:08:36.390Z,6.25
2023-02-11T00:11:04.818Z,7.65
2023-02-11T00:13:32.814Z,6.88
2023-02-11T00:16:00.936Z,6.53
2023-02-11T00:18:29.196Z,6.53
2023-02-11T00:20:57.212Z,6.13
2023-02-11T00:23:25.181Z,6.25
2023-02-11T00:25:54.661Z,6.68
2023-02-11T00:28:22.634Z,6.65
2023-02-11T00:30:55.952Z,6.30
2023-02-11T00:35:52.772Z,6.05
2023-02-11T00:38:20.975Z,7.25
2023-02-11T00:40:49.627Z,7.18
2023-02-11T00:43:19.368Z,7.25
2023-02-11T00:45:47.446Z,6.03
2023-02-11T00:48:15.753Z,7.25
2023-02-11T00:50:43.890Z,7.43
2023-02-11T00:53:12.153Z,7.60
2023-02-11T00:55:40.595Z,7.00
2023-02-11T00:58:08.666Z,7.30
2023-02-11T01:00:38.097Z,8.15
2023-02-11T01:03:07.493Z,7.15
2023-02-11T01:05:35.634Z,7.97
2023-02-11T01:08:04.061Z,7.57
2023-02-11T01:10:32.461Z,7.45
2023-02-11T01:13:01.793Z,7.75
2023-02-11T01:15:30.424Z,8.40
2023-02-11T01:18:00.169Z,8.05
2023-02-11T01:20:29.911Z,8.55
2023-02-11T01:22:58.282Z,8.45
2023-02-11T01:25:26.542Z,8.52
2023-02-11T01:27:55.098Z,8.88
2023-02-11T01:30:24.146Z,9.05
2023-02-11T01:32:52.516Z,8.48
2023-02-11T01:35:21.766Z,8.65
2023-02-11T01:37:49.956Z,9.25
2023-02-11T01:40:19.952Z,8.43
2023-02-11T01:42:50.898Z,9.40
2023-02-11T01:45:52.807Z,8.10
2023-02-11T01:48:25.810Z,10.07
2023-02-11T01:51:00.829Z,9.18
2023-02-11T01:53:48.483Z,9.00
2023-02-11T01:56:37.634Z,9.05
2023-02-11T01:59:12.745Z,9.93
2023-02-11T02:01:44.052Z,10.15
2023-02-11T02:04:13.515Z,9.70
2023-02-11T02:06:50.199Z,9.25
2023-02-11T02:09:23.280Z,11.10
2023-02-11T02:11:51.944Z,10.10
2023-02-11T02:14:20.412Z,10.80
2023-02-11T02:16:48.568Z,10.45
2023-02-11T02:19:55.177Z,10.80
2023-02-11T02:22:56.757Z,10.55
2023-02-11T02:25:41.780Z,10.48
2023-02-11T02:28:29.942Z,11.10
2023-02-11T02:31:20.530Z,10.48
2023-02-11T02:33:56.743Z,11.73
2023-02-11T02:36:33.054Z,11.10
2023-02-11T02:39:04.849Z,10.07
2023-02-11T02:41:35.375Z,11.57
2023-02-11T02:44:03.898Z,11.65
2023-02-11T02:46:34.079Z,12.70
2023-02-11T02:49:03.561Z,11.82
2023-02-11T02:51:56.794Z,11.80
2023-02-11T02:54:52.663Z,12.13
2023-02-11T02:57:31.848Z,12.15
2023-02-11T03:00:12.997Z,12.43
2023-02-11T03:02:47.872Z,12.50
2023-02-11T03:05:23.594Z,11.57
2023-02-11T03:07:58.648Z,11.90
2023-02-11T03:10:30.608Z,14.52
2023-02-11T03:13:00.843Z,12.27
2023-02-11T03:15:32.877Z,13.88
2023-02-11T03:18:04.335Z,13.50
2023-02-11T03:20:37.343Z,13.07
2023-02-11T03:23:09.272Z,14.18
2023-02-11T03:25:43.200Z,14.80
2023-02-11T03:28:16.941Z,14.10
2023-02-11T03:30:50.535Z,14.20
2023-02-11T03:35:57.784Z,14.10
2023-02-11T03:38:30.664Z,14.70
2023-02-11T03:40:59.909Z,15.73
2023-02-11T03:43:34.170Z,15.02
2023-02-11T03:46:04.421Z,15.43
2023-02-11T03:48:36.325Z,17.75
2023-02-11T03:51:08.946Z,16.42
2023-02-11T03:53:39.710Z,17.23
2023-02-11T03:56:11.792Z,15.63
2023-02-11T03:58:39.775Z,17.88
2023-02-11T04:01:09.939Z,17.42
2023-02-11T04:03:38.281Z,16.80
2023-02-11T04:06:08.125Z,16.10
2023-02-11T04:08:36.366Z,17.85
2023-02-11T04:11:04.481Z,17.65
2023-02-11T04:13:32.640Z,17.23
2023-02-11T04:16:00.647Z,18.42
2023-02-11T04:18:28.679Z,17.67
2023-02-11T04:20:56.703Z,18.63
2023-02-11T04:23:26.251Z,18.63
2023-02-11T04:25:54.442Z,18.83
2023-02-11T04:28:22.651Z,19.70
2023-02-11T04:30:50.945Z,18.25
2023-02-11T04:33:18.965Z,20.30
2023-02-11T04:35:47.565Z,18.77
2023-02-11T04:38:15.825Z,19.63
2023-02-11T04:40:45.240Z,19.02
2023-02-11T04:43:13.324Z,19.88
2023-02-11T04:45:41.484Z,18.55
2023-02-11T04:48:09.483Z,19.02
2023-02-11T04:50:37.583Z,18.55
2023-02-11T04:53:05.657Z,19.52
2023-02-11T04:55:33.844Z,18.90
2023-02-11T04:58:03.841Z,20.67
2023-02-11T05:00:32.267Z,20.90
2023-02-11T05:03:00.476Z,18.60
2023-02-11T05:05:28.514Z,19.40
2023-02-11T05:07:56.735Z,20.95
2023-02-11T05:10:24.992Z,18.77
2023-02-11T05:12:55.416Z,18.85
2023-02-11T05:15:25.678Z,18.20
2023-02-11T05:17:54.579Z,19.17
2023-02-11T05:20:23.734Z,19.77
2023-02-11T05:22:52.551Z,20.27
2023-02-11T05:25:22.685Z,18.45
2023-02-11T05:27:50.806Z,20.20
2023-02-11T05:30:19.611Z,19.33
2023-02-11T05:32:49.051Z,18.80
2023-02-11T05:35:17.608Z,19.73
2023-02-11T05:37:46.740Z,18.52
2023-02-11T05:40:15.064Z,19.70
2023-02-11T05:42:43.566Z,19.08
2023-02-11T05:45:11.903Z,17.10
2023-02-11T05:47:39.804Z,19.58
2023-02-11T05:50:09.905Z,17.85
2023-02-11T05:52:38.032Z,19.08
2023-02-11T05:55:07.009Z,17.52
2023-02-11T05:57:34.905Z,17.27
2023-02-11T06:00:03.437Z,17.60
2023-02-11T06:02:41.044Z,16.05
2023-02-11T06:05:10.872Z,17.15
2023-02-11T06:07:39.031Z,17.00
2023-02-11T06:10:08.655Z,16.88
2023-02-11T06:12:38.038Z,16.65
2023-02-11T06:15:07.509Z,16.63
2023-02-11T06:17:36.725Z,16.33
2023-02-11T06:20:06.455Z,16.23
2023-02-11T06:22:35.834Z,17.17
2023-02-11T06:25:04.178Z,16.42
2023-02-11T06:27:32.396Z,16.73
2023-02-11T06:30:00.793Z,16.73
2023-02-11T06:32:46.068Z,15.93
2023-02-11T06:35:15.812Z,16.85
2023-02-11T06:37:45.763Z,15.98
2023-02-11T06:40:14.393Z,16.63
2023-02-11T06:42:42.750Z,16.63
2023-02-11T06:45:13.177Z,16.20
2023-02-11T06:47:42.171Z,17.17
2023-02-11T06:50:14.496Z,16.55
2023-02-11T06:52:43.162Z,16.13
2023-02-11T06:55:14.264Z,16.25
2023-02-11T06:57:42.851Z,15.90
2023-02-11T07:00:12.796Z,17.23
2023-02-11T07:02:41.251Z,15.98
2023-02-11T07:05:10.482Z,16.17
2023-02-11T07:07:39.325Z,15.30
2023-02-11T07:10:08.465Z,17.33
2023-02-11T07:12:37.977Z,15.60
2023-02-11T07:15:07.779Z,16.38
2023-02-11T07:17:36.417Z,16.30
2023-02-11T07:20:05.523Z,15.93
2023-02-11T07:22:35.262Z,16.80
2023-02-11T07:25:04.742Z,15.45
2023-02-11T07:27:33.166Z,16.17
2023-02-11T07:30:07.338Z,16.33
2023-02-11T07:32:35.730Z,15.45
2023-02-11T07:35:03.988Z,15.27
2023-02-11T07:37:32.020Z,15.88
2023-02-11T07:40:01.557Z,16.00
2023-02-11T07:42:29.917Z,15.07
2023-02-11T07:44:58.010Z,15.00
2023-02-11T07:47:28.269Z,14.65
2023-02-11T07:49:56.817Z,13.65
2023-02-11T07:52:25.264Z,14.75
2023-02-11T07:54:53.461Z,12.68
2023-02-11T07:57:21.551Z,13.43
2023-02-11T07:59:49.662Z,13.90
2023-02-11T08:02:18.202Z,14.38
2023-02-11T08:04:48.463Z,13.10
2023-02-11T08:07:17.596Z,12.75
2023-02-11T08:09:46.028Z,14.30
2023-02-11T08:12:14.575Z,13.48
2023-02-11T08:14:42.564Z,11.60
2023-02-11T08:17:10.588Z,13.32
2023-02-11T08:19:40.081Z,12.07
2023-02-11T08:22:09.846Z,11.30
2023-02-11T08:24:37.857Z,11.38
2023-02-11T08:27:05.805Z,11.95
2023-02-11T08:29:34.083Z,11.13
2023-02-11T08:32:02.949Z,11.52
2023-02-11T08:34:31.250Z,10.70
2023-02-11T08:36:59.326Z,9.82
2023-02-11T08:39:28.882Z,11.80
2023-02-11T08:41:58.003Z,10.48
2023-02-11T08:44:26.212Z,10.50
2023-02-11T08:46:54.767Z,9.70
2023-02-11T08:49:23.907Z,11.07
2023-02-11T08:51:52.004Z,11.15
2023-02-11T08:54:20.117Z,11.55
2023-02-11T08:56:53.188Z,10.73
2023-02-11T08:59:21.322Z,10.93
2023-02-11T09:01:49.927Z,9.98
2023-02-11T09:04:18.795Z,10.38
2023-02-11T09:06:48.960Z,10.63
2023-02-11T09:09:18.181Z,11.10
2023-02-11T09:11:48.176Z,10.60
2023-02-11T09:14:20.852Z,10.55
2023-02-11T09:16:49.898Z,11.25
2023-02-11T09:19:19.666Z,10.95
2023-02-11T09:21:48.721Z,10.23
2023-02-11T09:24:17.378Z,10.15
2023-02-11T09:26:45.891Z,9.73
2023-02-11T09:29:14.550Z,10.07
2023-02-11T09:31:44.384Z,9.82
2023-02-11T09:34:14.319Z,9.35
2023-02-11T09:36:43.541Z,10.57
2023-02-11T09:39:17.301Z,9.07
2023-02-11T09:42:15.661Z,9.63
2023-02-11T09:44:47.986Z,8.93
2023-02-11T09:47:37.315Z,8.73
2023-02-11T09:50:15.584Z,8.77
2023-02-11T09:52:53.368Z,8.27
2023-02-11T09:55:27.471Z,9.00
2023-02-11T09:57:58.214Z,8.95
2023-02-11T10:00:40.844Z,8.63
2023-02-11T10:03:46.655Z,7.90
2023-02-11T10:06:28.214Z,8.02
2023-02-11T10:09:07.942Z,8.65
2023-02-11T10:11:49.457Z,8.25
2023-02-11T10:14:36.430Z,7.57
2023-02-11T10:17:17.461Z,7.20
2023-02-11T10:20:05.614Z,6.78
2023-02-11T10:22:40.679Z,6.57
2023-02-11T10:25:21.922Z,6.70
2023-02-11T10:27:52.643Z,6.85
2023-02-11T10:30:30.191Z,6.70
2023-02-11T10:33:05.190Z,6.10
2023-02-11T10:35:35.845Z,6.82
2023-02-11T10:38:06.975Z,5.72
2023-02-11T10:40:35.841Z,5.88
2023-02-11T10:43:08.117Z,6.28
2023-02-11T10:45:40.997Z,5.93
2023-02-11T10:48:42.366Z,7.40
2023-02-11T10:51:20.787Z,5.28
2023-02-11T10:53:51.813Z,7.82
2023-02-11T10:56:27.844Z,5.40
2023-02-11T10:59:00.148Z,5.78
2023-02-11T11:01:46.534Z,4.93
2023-02-11T11:04:41.195Z,5.60
2023-02-11T11:07:23.699Z,5.03
2023-02-11T11:09:55.896Z,4.40
2023-02-11T11:12:48.125Z,4.25
2023-02-11T11:15:23.973Z,4.45
2023-02-11T11:18:20.907Z,5.22
2023-02-11T11:21:00.839Z,3.72
2023-02-11T11:23:32.226Z,3.92
2023-02-11T11:26:06.291Z,4.25
2023-02-11T11:28:41.037Z,4.50
2023-02-11T11:31:18.429Z,4.10
2023-02-11T11:33:49.210Z,3.97
2023-02-11T11:36:22.815Z,4.20
2023-02-11T11:41:28.658Z,3.70
2023-02-11T11:46:30.061Z,3.85
2023-02-11T11:49:17.668Z,3.60
2023-02-11T11:51:58.111Z,4.60
2023-02-11T11:54:30.501Z,4.28
2023-02-11T11:57:04.614Z,3.87
2023-02-11T11:59:34.317Z,4.00
2023-02-11T12:02:36.953Z,3.90
2023-02-11T12:05:13.101Z,3.67
2023-02-11T12:07:53.293Z,3.70
2023-02-11T12:10:46.909Z,3.13
2023-02-11T12:13:35.455Z,3.45
2023-02-11T12:16:17.393Z,3.47
2023-02-11T12:19:13.659Z,3.58
2023-02-11T12:21:52.117Z,3.88
2023-02-11T12:24:36.885Z,3.38
2023-02-11T12:27:14.500Z,3.97
2023-02-11T12:30:02.715Z,3.28
2023-02-11T12:32:39.748Z,2.60
2023-02-11T12:35:21.854Z,3.80
2023-02-11T12:38:09.894Z,4.10
2023-02-11T12:40:47.250Z,3.95
2023-02-11T12:43:22.746Z,3.35
2023-02-11T12:46:17.630Z,3.00
2023-02-11T12:49:07.543Z,3.88
2023-02-11T12:51:51.497Z,3.25
2023-02-11T12:54:28.880Z,2.78
2023-02-11T12:57:04.113Z,3.10
2023-02-11T12:59:46.632Z,2.95
2023-02-11T13:02:26.504Z,3.67
2023-02-11T13:04:59.250Z,4.40
2023-02-11T13:07:33.732Z,3.63
2023-02-11T13:10:08.940Z,3.10
2023-02-11T13:12:56.787Z,4.50
2023-02-11T13:15:27.879Z,3.20
2023-02-11T13:18:02.211Z,3.63
2023-02-11T13:20:41.558Z,4.60
2023-02-11T13:23:21.082Z,3.80
2023-02-11T13:25:56.873Z,3.50
2023-02-11T13:28:40.787Z,3.50
2023-02-11T13:33:46.768Z,2.83
2023-02-11T13:39:10.954Z,2.97
2023-02-11T13:41:51.577Z,4.05
2023-02-11T13:44:28.617Z,3.22
2023-02-11T13:47:05.500Z,3.70
2023-02-11T13:49:42.446Z,2.83
2023-02-11T13:52:29.209Z,3.65
2023-02-11T13:55:06.578Z,2.70
2023-02-11T13:57:43.896Z,3.95
2023-02-11T14:00:45.237Z,3.58
2023-02-11T14:03:48.705Z,3.05
2023-02-11T14:06:40.988Z,3.10
2023-02-11T14:09:39.944Z,3.28
2023-02-11T14:12:27.362Z,3.55
2023-02-11T14:15:38.336Z,3.13
2023-02-11T14:18:39.920Z,3.42
2023-02-11T14:21:16.278Z,3.20
2023-02-11T14:23:45.772Z,3.72
2023-02-11T14:26:35.078Z,3.67
2023-02-11T14:29:14.113Z,3.65
2023-02-11T14:31:49.244Z,2.97
2023-02-11T14:34:39.331Z,3.70
2023-02-11T14:37:18.314Z,3.40
2023-02-11T14:40:04.167Z,3.25
2023-02-11T14:42:32.453Z,2.83
2023-02-11T14:45:06.978Z,3.08
2023-02-11T14:47:42.049Z,3.75
2023-02-11T14:50:19.203Z,4.85
2023-02-11T14:52:49.828Z,3.45
2023-02-11T14:55:29.330Z,3.63
2023-02-11T14:58:15.458Z,3.17
2023-02-11T15:00:56.505Z,3.10
2023-02-11T15:03:34.838Z,3.78
2023-02-11T15:06:07.463Z,3.55
2023-02-11T15:08:39.316Z,3.63
2023-02-11T15:11:12.983Z,2.90
2023-02-11T15:13:48.083Z,2.83
2023-02-11T15:16:19.375Z,3.78
2023-02-11T15:18:51.783Z,3.53
2023-02-11T15:21:25.848Z,3.45
2023-02-11T15:24:00.698Z,3.28
2023-02-11T15:26:30.416Z,3.10
2023-02-11T15:28:59.420Z,3.42
2023-02-11T15:31:29.440Z,3.30
2023-02-11T15:34:08.850Z,2.70
2023-02-11T15:36:37.117Z,3.45
2023-02-11T15:39:20.940Z,3.45
2023-02-11T15:44:31.149Z,3.03
2023-02-11T15:46:59.600Z,3.35
2023-02-11T15:49:28.327Z,3.20
2023-02-11T15:51:58.275Z,3.28
2023-02-11T15:54:32.057Z,3.22
2023-02-11T15:57:05.583Z,2.95
2023-02-11T16:02:17.216Z,3.22
2023-02-11T16:04:52.370Z,3.00
2023-02-11T16:07:39.582Z,3.25
2023-02-11T16:10:24.610Z,4.38
2023-02-11T16:12:55.328Z,3.10
2023-02-11T16:15:46.404Z,2.92
2023-02-11T16:18:31.067Z,2.72
2023-02-11T16:21:07.056Z,3.17
2023-02-11T16:23:39.022Z,3.15
2023-02-11T16:26:14.128Z,3.55
2023-02-11T16:28:42.457Z,3.22
2023-02-11T16:31:11.965Z,3.30
2023-02-11T16:33:40.335Z,2.58
2023-02-11T16:36:14.254Z,3.28
2023-02-11T16:38:42.385Z,3.58
2023-02-11T16:41:12.995Z,3.35
2023-02-11T16:43:41.315Z,3.08
2023-02-11T16:46:10.217Z,3.33
2023-02-11T16:48:39.301Z,3.40
2023-02-11T16:51:09.861Z,4.07
2023-02-11T16:53:38.647Z,3.58
2023-02-11T16:56:07.203Z,2.88
2023-02-11T16:58:39.692Z,3.83
2023-02-11T17:01:10.175Z,3.30
2023-02-11T17:03:41.202Z,3.20
2023-02-11T17:06:11.998Z,2.83
2023-02-11T17:08:40.647Z,3.08
2023-02-11T17:11:10.395Z,3.75
2023-02-11T17:13:42.014Z,3.53
2023-02-11T17:16:18.824Z,2.92
2023-02-11T17:18:47.810Z,3.20
2023-02-11T17:21:17.089Z,3.00
2023-02-11T17:23:46.084Z,3.13
2023-02-11T17:26:15.211Z,3.22
2023-02-11T17:28:44.832Z,3.53
2023-02-11T17:31:13.428Z,3.05
2023-02-11T17:33:41.720Z,3.83
2023-02-11T17:36:12.262Z,2.85
2023-02-11T17:38:45.932Z,3.80
2023-02-11T17:41:13.992Z,3.58
2023-02-11T17:43:42.948Z,3.13
2023-02-11T17:46:14.465Z,3.70
2023-02-11T17:48:42.877Z,3.60
2023-02-11T17:51:23.091Z,3.13
2023-02-11T17:53:52.002Z,3.38
2023-02-11T17:56:20.402Z,2.60
2023-02-11T17:58:48.731Z,3.45
2023-02-11T18:01:18.314Z,3.45
2023-02-11T18:03:46.425Z,3.15
2023-02-11T18:06:15.651Z,3.08
2023-02-11T18:08:43.861Z,2.97
2023-02-11T18:11:15.175Z,3.63
2023-02-11T18:13:43.820Z,3.53
2023-02-11T18:16:15.924Z,3.20
2023-02-11T18:18:45.907Z,3.30
2023-02-11T18:21:16.860Z,3.47
2023-02-11T18:23:46.511Z,3.47
2023-02-11T18:26:16.512Z,4.28
2023-02-11T18:28:45.957Z,3.42
2023-02-11T18:31:15.726Z,3.45
2023-02-11T18:33:45.817Z,4.18
2023-02-11T18:36:15.715Z,3.42
2023-02-11T18:38:45.097Z,2.80
2023-02-11T18:41:13.499Z,4.50
2023-02-11T18:43:42.986Z,3.55
2023-02-11T18:46:12.719Z,3.88
2023-02-11T18:48:41.765Z,4.22
2023-02-11T18:51:12.458Z,4.63
2023-02-11T18:53:40.832Z,3.95
2023-02-11T18:56:09.776Z,4.18
2023-02-11T18:58:38.553Z,4.75
2023-02-11T19:01:12.714Z,4.57
2023-02-11T19:03:40.807Z,4.05
2023-02-11T19:06:17.972Z,4.35
2023-02-11T19:08:46.098Z,4.63
2023-02-11T19:11:16.087Z,4.85
2023-02-11T19:13:43.998Z,5.07
2023-02-11T19:16:14.863Z,4.30
2023-02-11T19:18:43.101Z,4.00
2023-02-11T19:21:14.407Z,5.22
2023-02-11T19:23:44.364Z,4.40
2023-02-11T19:26:15.123Z,4.20
2023-02-11T19:28:44.897Z,3.35
2023-02-11T19:31:13.049Z,3.35
2023-02-11T19:33:41.126Z,3.22
2023-02-11T19:36:11.884Z,3.90
2023-02-11T19:38:40.023Z,4.28
2023-02-11T19:41:12.365Z,4.20
2023-02-11T19:43:41.597Z,3.40
2023-02-11T19:46:10.059Z,4.45
2023-02-11T19:48:38.158Z,4.47
2023-02-11T19:51:13.115Z,4.60
2023-02-11T19:53:41.625Z,4.65
2023-02-11T19:56:12.672Z,3.75
2023-02-11T19:58:41.774Z,4.80
2023-02-11T20:01:11.575Z,3.97
2023-02-11T20:03:42.424Z,4.30
2023-02-11T20:06:14.103Z,4.38
2023-02-11T20:08:42.502Z,5.07
2023-02-11T20:11:14.257Z,4.65
2023-02-11T20:13:43.210Z,4.88
2023-02-11T20:16:13.831Z,4.63
2023-02-11T20:18:42.367Z,4.93
2023-02-11T20:21:11.361Z,4.55
2023-02-11T20:23:40.376Z,4.72
2023-02-11T20:26:09.704Z,4.80
2023-02-11T20:28:39.347Z,4.90
2023-02-11T20:31:08.068Z,5.22
2023-02-11T20:33:36.145Z,5.25
2023-02-11T20:36:06.552Z,6.38
2023-02-11T20:38:34.834Z,5.65
2023-02-11T20:41:04.632Z,4.55
2023-02-11T20:43:33.129Z,5.00
2023-02-11T20:46:05.955Z,5.70
2023-02-11T20:48:34.821Z,5.80
2023-02-11T20:51:07.412Z,5.10
2023-02-11T20:53:36.710Z,5.80
2023-02-11T20:56:06.653Z,5.68
2023-02-11T20:58:35.835Z,6.15
2023-02-11T21:01:10.125Z,6.28
2023-02-11T21:03:38.179Z,6.07
2023-02-11T21:06:07.065Z,5.65
2023-02-11T21:08:35.264Z,6.00
2023-02-11T21:11:03.822Z,5.05
2023-02-11T21:13:31.918Z,5.90
2023-02-11T21:16:00.332Z,6.15
2023-02-11T21:18:30.773Z,5.95
2023-02-11T21:21:00.185Z,5.35
2023-02-11T21:23:29.115Z,7.15
2023-02-11T21:25:57.941Z,6.80
2023-02-11T21:28:27.140Z,6.55
2023-02-11T21:30:57.334Z,6.95
2023-02-11T21:33:26.731Z,5.47
2023-02-11T21:35:57.465Z,6.20
2023-02-11T21:38:27.530Z,5.93
2023-02-11T21:40:55.939Z,6.93
2023-02-11T21:43:25.004Z,6.18
2023-02-11T21:45:53.755Z,6.97
2023-02-11T21:48:23.857Z,6.53
2023-02-11T21:50:52.303Z,6.68
2023-02-11T21:53:21.692Z,6.95
2023-02-11T21:55:51.346Z,7.03
2023-02-11T21:58:19.643Z,6.38
2023-02-11T22:00:47.838Z,7.13
2023-02-11T22:03:15.977Z,7.10
2023-02-11T22:05:44.216Z,7.07
2023-02-11T22:08:12.572Z,7.75
2023-02-11T22:10:42.634Z,6.93
2023-02-11T22:13:11.010Z,7.22
2023-02-11T22:15:40.248Z,7.85
2023-02-11T22:18:08.494Z,6.25
2023-02-11T22:20:36.795Z,6.80
2023-02-11T22:23:04.776Z,7.47
2023-02-11T22:25:32.868Z,6.68
2023-02-11T22:28:02.669Z,6.30
2023-02-11T22:30:31.353Z,6.38
2023-02-11T22:32:59.656Z,6.20
2023-02-11T22:35:27.793Z,5.75
2023-02-11T22:37:55.820Z,6.15
2023-02-11T22:40:25.615Z,6.47
2023-02-11T22:42:54.142Z,6.00
2023-02-11T22:45:24.330Z,6.93
2023-02-11T22:47:54.449Z,6.95
2023-02-11T22:50:22.953Z,6.30
2023-02-11T22:52:51.010Z,6.60
2023-02-11T22:55:19.375Z,6.88
2023-02-11T22:57:47.617Z,7.25
2023-02-11T23:00:17.245Z,6.93
2023-02-11T23:02:46.844Z,6.60
2023-02-11T23:05:15.339Z,7.22
2023-02-11T23:07:43.600Z,6.63
2023-02-11T23:10:12.161Z,6.30
2023-02-11T23:12:40.361Z,6.80
2023-02-11T23:15:09.175Z,6.78
2023-02-11T23:17:37.323Z,6.68
2023-02-11T23:20:07.930Z,5.90
2023-02-11T23:22:35.976Z,6.13
2023-02-11T23:25:04.006Z,6.95
2023-02-11T23:27:32.142Z,6.50
2023-02-11T23:30:00.336Z,6.85
2023-02-11T23:32:28.234Z,7.30
2023-02-11T23:34:56.608Z,7.38
2023-02-11T23:37:26.226Z,7.22
2023-02-11T23:39:54.483Z,7.60
2023-02-11T23:42:22.584Z,7.18
2023-02-11T23:44:50.536Z,7.38
2023-02-11T23:47:18.515Z,7.43
2023-02-11T23:49:46.518Z,7.13
2023-02-11T23:52:14.511Z,7.32
2023-02-11T23:54:45.612Z,7.25
2023-02-11T23:57:13.552Z,8.00
2023-02-11T23:59:43.158Z,8.02
